Hauptseite
METAR-TAF:

METAR-TAF

Flughäfen :

Egelsbach, Deutschland

Flugplatz Frankfurt-Egelsbach

Breite: 49-57-40N, Länge: 8-38-37E, Höhe: 117 m

Beobachtung

Neuester Wetterbericht von vor 17 Minuten, um 10:50 UTC
Wind 9 kt aus Süd/Südwest
Temperatur 13°C
Luftfeuchtigkeit 51%
Luftdruck 1005 hPa
Sichtweite 10 km oder mehr
Leicht bewölkt in der Höhe von 4300 ft

METAR: EDFE 271050Z 20009KT 9999 FEW043 13/03 Q1005

Zeit: 12:07 (11:07 UTC)


TAF: fehlend

Wetterbeobachtungen und Prognosen von mehr als 4000 Flughäfen (METAR und TAF Bericht).

Die verfügbaren Stationen werden durch gelbe und rote Markierungen auf der Karte dargestellt.

Führen Sie die Maus auf sie, um den Namen der Station zu sehen.

Darauf klicken, um die Beobachtung von Wetterbeobachtungen und Prognosen zu sehen.

Um die Karte zu ändern : klicken Sie auf den grünen Tasten mit einem schwarzen Kreuz Zum Vergrößern, auf den grünen Button mit einem Gedankenstrich zu verkleinern, oder auf die grünen Pfeile für benachbarte Karten.


METAR-TAF: